Time;durP1;ratioP1;P1;durP2;ratioP2;P2;SDS_P1;SDS_P2;PMS_P1;PMS_P2;Temp;Humidity;BMP_temperature;BMP_pressure;BME280_temperature;BME280_humidity;BME280_pressure;Samples;Min_cycle;Max_cycle;Signal;HPM_P1;HPM_P2
2021/08/18 00:02:24;;;;;;;1.50;0.80;;;;;;;26.14;42.26;100992.56;5052194;28;20053;-65
2021/08/18 00:04:54;;;;;;;4.05;0.93;;;;;;;26.15;41.94;100992.38;5052042;28;20132;-65
2021/08/18 00:07:21;;;;;;;2.10;0.75;;;;;;;26.15;41.98;100992.38;5052017;28;20049;-65
2021/08/18 00:09:49;;;;;;;2.30;0.80;;;;;;;26.12;41.88;100991.91;5051882;28;20053;-65
2021/08/18 00:12:17;;;;;;;2.42;1.00;;;;;;;26.11;41.84;100987.59;5051878;28;20473;-65
2021/08/18 00:14:44;;;;;;;2.75;0.85;;;;;;;26.11;42.16;100990.28;5052220;28;20049;-65
2021/08/18 00:17:11;;;;;;;1.02;0.70;;;;;;;26.07;41.97;100981.72;5052235;28;20045;-66
2021/08/18 00:19:37;;;;;;;3.58;1.00;;;;;;;26.05;41.91;100987.25;5052041;28;20115;-65
2021/08/18 00:22:04;;;;;;;2.85;0.80;;;;;;;26.02;41.81;100990.31;5051857;28;20103;-65
2021/08/18 00:24:31;;;;;;;2.25;0.95;;;;;;;25.97;42.13;100986.50;5051755;28;20492;-65
2021/08/18 00:26:58;;;;;;;1.75;0.90;;;;;;;25.89;41.98;100988.25;5051887;28;20079;-65
2021/08/18 00:29:38;;;;;;;2.80;0.75;;;;;;;25.90;41.89;100992.59;5051679;28;20674;-65
2021/08/18 00:32:05;;;;;;;1.75;0.88;;;;;;;25.89;41.65;100990.94;5051764;28;20095;-65
2021/08/18 00:34:31;;;;;;;2.80;0.98;;;;;;;25.88;41.40;100991.94;5051681;28;20492;-65
2021/08/18 00:36:58;;;;;;;1.85;0.60;;;;;;;25.83;41.08;100986.28;5051664;28;20103;-65
2021/08/18 00:39:25;;;;;;;1.10;0.70;;;;;;;25.87;40.76;100989.44;5051736;28;20048;-65
2021/08/18 00:41:53;;;;;;;2.70;0.82;;;;;;;25.85;40.30;100984.25;5055318;28;20104;-65
2021/08/18 00:44:20;;;;;;;1.23;0.70;;;;;;;25.83;39.99;100980.06;5055923;28;20048;-65
2021/08/18 00:46:51;;;;;;;1.10;0.80;;;;;;;25.80;39.57;100980.44;5055887;28;20049;-65
2021/08/18 00:49:19;;;;;;;1.30;0.80;;;;;;;25.72;39.44;100979.47;5055739;28;20098;-65
2021/08/18 00:51:47;;;;;;;1.27;0.70;;;;;;;25.72;39.50;100984.84;5055800;28;20118;-65
2021/08/18 00:54:15;;;;;;;1.23;0.70;;;;;;;25.67;39.35;100981.88;5055598;28;20045;-65
2021/08/18 00:56:42;;;;;;;0.98;0.63;;;;;;;25.69;39.10;100979.84;5055753;28;20380;-65
2021/08/18 00:59:10;;;;;;;1.65;0.80;;;;;;;25.62;39.16;100984.25;5055549;28;20545;-65
2021/08/18 01:01:38;;;;;;;1.10;0.80;;;;;;;25.62;39.09;100994.19;5055418;28;20487;-65
2021/08/18 01:04:06;;;;;;;1.30;0.70;;;;;;;25.62;39.09;100986.94;5055580;28;20053;-65
2021/08/18 01:06:41;;;;;;;1.40;0.82;;;;;;;25.53;39.12;100988.03;5055469;28;20103;-66
2021/08/18 01:09:10;;;;;;;1.35;0.75;;;;;;;25.54;39.09;100987.84;5055214;28;20491;-65
2021/08/18 01:11:41;;;;;;;1.60;0.80;;;;;;;25.53;38.92;100991.56;5055339;28;20056;-65
2021/08/18 01:14:08;;;;;;;2.28;1.00;;;;;;;25.47;39.23;100996.81;5055486;28;20044;-65
2021/08/18 01:16:37;;;;;;;3.20;0.75;;;;;;;25.45;39.22;100997.00;5055498;28;20048;-65
2021/08/18 01:19:05;;;;;;;2.38;1.00;;;;;;;25.49;38.99;100997.50;5055361;28;20053;-66
2021/08/18 01:21:36;;;;;;;2.00;0.63;;;;;;;25.46;39.10;101008.56;5055058;28;20491;-65
2021/08/18 01:24:03;;;;;;;2.22;0.70;;;;;;;25.41;39.02;101011.81;5055081;28;20103;-65
2021/08/18 01:26:31;;;;;;;1.42;0.80;;;;;;;25.41;38.91;101007.25;5054905;28;20087;-65
2021/08/18 01:29:00;;;;;;;0.93;0.68;;;;;;;25.41;38.91;101017.19;5054948;28;20502;-65
2021/08/18 01:31:27;;;;;;;0.88;0.70;;;;;;;25.40;38.85;101019.03;5054935;28;20045;-65
2021/08/18 01:33:58;;;;;;;1.77;0.70;;;;;;;25.43;38.80;101007.09;5054900;28;20103;-65
2021/08/18 01:36:24;;;;;;;2.13;0.75;;;;;;;25.46;38.66;101008.56;5054735;28;20091;-66
2021/08/18 01:38:51;;;;;;;1.30;0.90;;;;;;;25.47;38.97;101005.72;5037108;28;20048;-65
2021/08/18 01:41:18;;;;;;;1.33;0.65;;;;;;;25.45;39.19;100991.63;5054906;28;20049;-65
2021/08/18 01:43:44;;;;;;;1.52;0.80;;;;;;;25.46;38.82;100993.31;5054958;28;20462;-65
2021/08/18 01:46:11;;;;;;;1.15;0.52;;;;;;;25.45;39.29;100991.63;5054629;28;20074;-65
2021/08/18 01:48:37;;;;;;;3.35;1.13;;;;;;;25.38;39.32;100999.56;5054653;28;20132;-65
2021/08/18 01:51:06;;;;;;;1.40;0.80;;;;;;;25.37;39.36;101005.09;5054473;28;20487;-66
2021/08/18 01:53:34;;;;;;;1.83;0.52;;;;;;;25.37;39.42;101007.78;5054463;28;20548;-65
2021/08/18 01:56:03;;;;;;;2.15;0.90;;;;;;;25.34;39.59;101010.81;5054675;28;20041;-65
2021/08/18 01:58:33;;;;;;;2.42;0.88;;;;;;;25.26;39.86;101009.84;5054322;28;20041;-65
2021/08/18 02:01:06;;;;;;;1.45;0.90;;;;;;;25.27;39.65;101021.44;5054499;28;20092;-65
2021/08/18 02:03:33;;;;;;;1.45;0.90;;;;;;;25.21;39.99;101009.53;5054314;28;20176;-65
2021/08/18 02:05:59;;;;;;;1.58;0.68;;;;;;;25.17;40.08;101002.84;5054255;28;20052;-65
2021/08/18 02:08:26;;;;;;;8.80;1.00;;;;;;;25.20;39.84;101002.50;5054199;28;20083;-65
2021/08/18 02:10:53;;;;;;;2.10;0.95;;;;;;;25.18;40.22;100996.47;5054199;28;20099;-65
2021/08/18 02:13:20;;;;;;;1.52;0.90;;;;;;;25.14;39.90;100997.84;5054042;28;20053;-65
2021/08/18 02:15:47;;;;;;;3.65;1.20;;;;;;;25.11;40.28;100998.19;5054122;28;20457;-65
2021/08/18 02:18:15;;;;;;;1.02;0.70;;;;;;;25.08;40.35;101004.75;5054115;28;20044;-65
2021/08/18 02:20:45;;;;;;;1.63;0.70;;;;;;;25.07;40.20;101002.25;5054128;28;20052;-66
2021/08/18 02:23:12;;;;;;;3.42;0.70;;;;;;;25.03;40.09;100999.06;5053987;28;20094;-65
2021/08/18 02:25:39;;;;;;;2.45;0.95;;;;;;;25.04;40.22;101000.75;5054088;28;20045;-65
2021/08/18 02:28:07;;;;;;;1.38;0.80;;;;;;;25.03;39.92;100998.25;5054000;28;20514;-65
2021/08/18 02:30:34;;;;;;;1.42;0.73;;;;;;;25.05;39.79;101010.50;5053983;28;20537;-65
2021/08/18 02:33:01;;;;;;;1.23;0.77;;;;;;;25.04;39.95;101008.81;5053772;28;20324;-65
2021/08/18 02:35:28;;;;;;;1.42;0.82;;;;;;;25.03;40.26;101014.38;5053730;28;20087;-65
2021/08/18 02:37:56;;;;;;;1.60;0.68;;;;;;;25.03;40.26;101023.25;5053661;28;20079;-65
2021/08/18 02:40:23;;;;;;;1.95;0.88;;;;;;;25.00;40.28;101022.75;5053609;28;20087;-65
2021/08/18 02:42:52;;;;;;;1.60;0.90;;;;;;;25.00;40.26;101025.44;5053800;28;20045;-65
2021/08/18 02:45:21;;;;;;;1.42;0.90;;;;;;;24.96;40.59;101032.16;5053550;28;20120;-65
2021/08/18 02:47:49;;;;;;;1.63;1.00;;;;;;;24.99;40.79;101032.66;5053783;28;20144;-65
2021/08/18 02:50:22;;;;;;;1.30;0.93;;;;;;;24.92;41.04;101042.41;5053454;28;20053;-65
2021/08/18 02:52:49;;;;;;;1.75;1.02;;;;;;;24.92;40.89;101040.59;5053400;28;20549;-65
2021/08/18 02:55:17;;;;;;;2.53;1.10;;;;;;;24.88;41.00;101041.94;5053400;28;20045;-65
2021/08/18 02:57:43;;;;;;;1.48;0.85;;;;;;;24.88;41.16;101036.56;5053363;28;20052;-65
2021/08/18 03:00:11;;;;;;;1.08;0.60;;;;;;;24.85;41.11;101042.28;5053404;28;20507;-65
2021/08/18 03:02:37;;;;;;;1.60;0.68;;;;;;;24.84;41.29;101045.97;5044626;28;20046;-65
2021/08/18 03:05:05;;;;;;;1.50;0.82;;;;;;;24.81;41.39;101040.97;5029537;28;20084;-65
2021/08/18 03:07:32;;;;;;;3.30;0.95;;;;;;;24.75;41.75;101047.03;5029268;28;20049;-65
2021/08/18 03:09:58;;;;;;;3.20;0.80;;;;;;;24.75;41.58;101039.81;5029647;28;20050;-66
2021/08/18 03:12:25;;;;;;;2.97;1.00;;;;;;;24.70;41.71;101041.34;5029633;28;20046;-65
2021/08/18 03:14:52;;;;;;;4.35;0.90;;;;;;;24.68;42.00;101046.84;5029979;28;20416;-65
2021/08/18 03:17:18;;;;;;;1.98;0.70;;;;;;;24.66;41.99;101034.63;5029490;28;20053;-65
2021/08/18 03:19:45;;;;;;;1.38;0.63;;;;;;;24.60;41.84;101041.50;5029594;28;20060;-65
2021/08/18 03:22:12;;;;;;;2.25;0.90;;;;;;;24.62;41.57;101043.00;5029485;28;20050;-65
2021/08/18 03:24:38;;;;;;;4.15;1.15;;;;;;;24.62;41.93;101047.53;5029327;28;20049;-65
2021/08/18 03:27:05;;;;;;;2.15;0.90;;;;;;;24.67;41.57;101044.34;5029500;28;20443;-65
2021/08/18 03:29:31;;;;;;;2.15;1.00;;;;;;;24.65;41.57;101039.16;5029317;28;20538;-66
2021/08/18 03:31:58;;;;;;;1.52;0.90;;;;;;;24.59;41.48;101047.88;5029412;28;20057;-65
2021/08/18 03:34:25;;;;;;;3.58;0.77;;;;;;;24.58;41.56;101051.56;5028990;28;20146;-65
2021/08/18 03:36:51;;;;;;;2.47;0.90;;;;;;;24.55;41.38;101055.41;5029418;28;20111;-65
2021/08/18 03:39:18;;;;;;;2.00;0.80;;;;;;;24.53;41.60;101060.13;5029245;28;20079;-65
2021/08/18 03:41:45;;;;;;;1.92;0.88;;;;;;;24.48;41.47;101064.31;5029005;28;20046;-65
2021/08/18 03:44:11;;;;;;;1.58;0.82;;;;;;;24.50;41.32;101062.31;5029167;28;20049;-66
2021/08/18 03:46:38;;;;;;;1.65;0.82;;;;;;;24.49;41.20;101072.19;5029027;28;20123;-65
2021/08/18 03:49:04;;;;;;;1.35;0.60;;;;;;;24.49;41.22;101077.56;5029091;28;20073;-65
2021/08/18 03:51:31;;;;;;;2.60;0.80;;;;;;;24.47;41.22;101074.22;5028831;28;20111;-65
2021/08/18 03:53:58;;;;;;;1.88;0.73;;;;;;;24.49;41.10;101079.41;5028836;28;20492;-65
2021/08/18 03:56:24;;;;;;;2.45;1.02;;;;;;;24.44;41.07;101077.25;5028737;28;20050;-65
2021/08/18 03:58:51;;;;;;;1.52;0.90;;;;;;;24.44;41.08;101083.47;5028901;28;20069;-66
2021/08/18 04:01:17;;;;;;;2.00;0.80;;;;;;;24.43;40.93;101080.97;5029239;28;20450;-65
2021/08/18 04:03:44;;;;;;;1.75;0.70;;;;;;;24.39;40.95;101085.81;5028914;28;20080;-65
2021/08/18 04:06:11;;;;;;;1.40;0.63;;;;;;;24.30;41.00;101089.50;5028660;28;20650;-65
2021/08/18 04:08:37;;;;;;;1.15;0.80;;;;;;;24.33;41.25;101094.53;5028743;28;20458;-64
2021/08/18 04:11:09;;;;;;;1.38;0.65;;;;;;;24.24;40.92;101096.38;5028822;28;20058;-65
2021/08/18 04:13:36;;;;;;;1.75;0.70;;;;;;;24.23;40.94;101094.72;5028688;28;20053;-66
2021/08/18 04:16:03;;;;;;;2.17;0.85;;;;;;;24.23;40.82;101101.94;5027811;28;20054;-65
2021/08/18 04:18:30;;;;;;;1.75;0.80;;;;;;;24.22;40.50;101102.94;5028830;28;20508;-65
2021/08/18 04:20:57;;;;;;;1.83;1.10;;;;;;;24.23;40.46;101101.94;5028682;28;20049;-64
2021/08/18 04:23:23;;;;;;;2.00;0.70;;;;;;;24.20;40.34;101104.94;5028365;28;20058;-65
2021/08/18 04:25:50;;;;;;;1.05;0.52;;;;;;;24.24;40.27;101109.78;5028648;28;20064;-65
2021/08/18 04:28:17;;;;;;;1.50;0.70;;;;;;;24.27;40.49;101112.13;5028544;28;20107;-65
2021/08/18 04:30:43;;;;;;;2.53;0.73;;;;;;;24.26;40.55;101114.97;5028657;28;20041;-65
2021/08/18 04:33:10;;;;;;;2.47;1.15;;;;;;;24.28;40.41;101111.13;5028468;28;20491;-65
2021/08/18 04:35:36;;;;;;;2.25;1.50;;;;;;;24.25;40.59;101110.63;5028494;28;20050;-65
2021/08/18 04:38:04;;;;;;;4.50;1.63;;;;;;;24.26;40.36;101115.84;5028631;28;20099;-65
2021/08/18 04:40:30;;;;;;;1.83;1.17;;;;;;;24.26;40.54;101117.66;5028313;28;20041;-65
2021/08/18 04:42:57;;;;;;;2.35;1.02;;;;;;;24.24;40.92;101119.66;5028449;28;20053;-65
2021/08/18 04:45:23;;;;;;;2.20;0.93;;;;;;;24.21;40.87;101122.69;5028716;28;20049;-65
2021/08/18 04:47:50;;;;;;;3.85;1.13;;;;;;;24.20;40.78;101126.38;5028586;28;20586;-66
2021/08/18 04:50:17;;;;;;;1.42;0.80;;;;;;;24.18;41.00;101115.81;5028729;28;20059;-65
2021/08/18 04:52:45;;;;;;;2.00;1.20;;;;;;;24.18;41.02;101121.19;5028210;28;20058;-65
2021/08/18 04:55:14;;;;;;;3.60;1.13;;;;;;;24.19;40.81;101116.66;5028227;28;20136;-66
2021/08/18 04:57:41;;;;;;;3.92;1.27;;;;;;;24.20;41.08;101123.69;5028213;28;20565;-65
2021/08/18 05:00:08;;;;;;;3.67;1.20;;;;;;;24.20;40.79;101124.56;5028309;28;20046;-65
2021/08/18 05:02:36;;;;;;;2.75;1.20;;;;;;;24.25;40.83;101122.22;5028348;28;20053;-65
2021/08/18 05:05:04;;;;;;;3.53;1.17;;;;;;;24.27;40.89;101122.84;5028600;28;20132;-65
2021/08/18 05:07:31;;;;;;;3.03;1.35;;;;;;;24.26;41.19;101123.03;5027974;28;20046;-66
2021/08/18 05:09:58;;;;;;;2.97;1.10;;;;;;;24.31;41.08;101127.91;5028214;28;20049;-65
2021/08/18 05:12:25;;;;;;;3.55;1.20;;;;;;;24.32;40.87;101124.22;5027964;28;20049;-65
2021/08/18 05:14:52;;;;;;;5.82;1.60;;;;;;;24.37;40.75;101122.69;5027973;28;20053;-65
2021/08/18 05:17:18;;;;;;;3.85;1.20;;;;;;;24.42;40.85;101130.25;5028156;28;20096;-65
2021/08/18 05:19:45;;;;;;;3.70;1.20;;;;;;;24.45;40.74;101130.75;5028581;28;20061;-65
2021/08/18 05:22:12;;;;;;;2.05;0.95;;;;;;;24.48;40.65;101132.25;5028299;28;20100;-65
2021/08/18 05:24:38;;;;;;;1.77;0.85;;;;;;;24.48;40.67;101131.41;5027933;28;20046;-65
2021/08/18 05:27:05;;;;;;;3.47;0.88;;;;;;;24.47;40.65;101130.56;5029868;28;20089;-66
2021/08/18 05:29:32;;;;;;;1.92;0.75;;;;;;;24.52;40.33;101136.25;5031398;28;20041;-66
2021/08/18 05:31:58;;;;;;;2.25;0.93;;;;;;;24.52;40.15;101135.41;5031580;28;20041;-66
2021/08/18 05:34:25;;;;;;;1.00;0.57;;;;;;;24.53;39.89;101132.59;5031364;28;20217;-66
2021/08/18 05:36:51;;;;;;;1.65;1.10;;;;;;;24.56;39.66;101129.53;5031724;28;20049;-66
2021/08/18 05:39:18;;;;;;;1.60;0.75;;;;;;;24.60;39.61;101130.06;5031476;28;20045;-66
2021/08/18 05:41:44;;;;;;;0.95;0.55;;;;;;;24.65;39.47;101140.31;5031710;28;20053;-66
2021/08/18 05:44:11;;;;;;;4.13;0.85;;;;;;;24.71;39.00;101136.94;5031569;28;20123;-66
2021/08/18 05:46:38;;;;;;;1.08;0.70;;;;;;;24.78;39.17;101138.78;5031066;28;20049;-66
2021/08/18 05:49:05;;;;;;;3.30;0.90;;;;;;;24.87;38.99;101149.50;5031113;28;20057;-66
2021/08/18 05:51:31;;;;;;;1.30;0.80;;;;;;;24.89;38.84;101148.31;5030995;28;20492;-66
2021/08/18 05:53:58;;;;;;;0.95;0.75;;;;;;;24.95;38.64;101146.78;5031182;28;20053;-66
2021/08/18 05:56:24;;;;;;;1.58;0.88;;;;;;;24.96;38.42;101145.75;5030866;28;20053;-66
2021/08/18 05:58:51;;;;;;;1.48;1.05;;;;;;;24.98;38.34;101154.50;5031102;28;20060;-66
2021/08/18 06:01:18;;;;;;;3.53;0.68;;;;;;;25.01;38.22;101158.69;5031356;28;20050;-66
2021/08/18 06:03:46;;;;;;;1.77;0.77;;;;;;;25.05;38.13;101147.44;5031244;28;20045;-66
2021/08/18 06:06:12;;;;;;;1.88;0.80;;;;;;;25.12;37.83;101152.94;5030606;28;20049;-66
2021/08/18 06:08:39;;;;;;;1.40;0.90;;;;;;;25.16;37.61;101156.13;5030551;28;20496;-66
2021/08/18 06:11:06;;;;;;;1.33;1.00;;;;;;;25.22;37.73;101152.75;5030997;28;20093;-66
2021/08/18 06:13:32;;;;;;;2.50;0.60;;;;;;;25.34;37.38;101158.56;5030711;28;20099;-66
2021/08/18 06:15:59;;;;;;;1.25;0.70;;;;;;;25.39;37.27;101156.22;5030792;28;20068;-66
2021/08/18 06:18:26;;;;;;;1.38;0.73;;;;;;;25.49;37.09;101154.16;5030766;28;20045;-67
2021/08/18 06:20:52;;;;;;;1.58;0.70;;;;;;;25.54;37.15;101154.47;5030560;28;20049;-66
2021/08/18 06:23:23;;;;;;;1.58;0.65;;;;;;;25.58;37.03;101158.50;5030731;28;20128;-66
2021/08/18 06:25:51;;;;;;;1.33;0.90;;;;;;;25.64;36.35;101151.56;5030753;28;20079;-66
2021/08/18 06:28:18;;;;;;;1.25;0.80;;;;;;;25.70;36.29;101152.69;5030732;28;20096;-66
2021/08/18 06:30:44;;;;;;;2.40;0.90;;;;;;;25.75;35.63;101153.03;5030705;28;20053;-66
2021/08/18 06:33:11;;;;;;;1.80;0.90;;;;;;;25.81;35.53;101152.28;5030464;28;20077;-66
2021/08/18 06:35:38;;;;;;;1.58;0.70;;;;;;;25.87;35.44;101143.53;5030183;28;20045;-66
2021/08/18 06:38:05;;;;;;;1.98;0.90;;;;;;;26.00;35.23;101142.09;5029693;28;20127;-66
2021/08/18 06:40:31;;;;;;;1.98;0.70;;;;;;;26.01;35.10;101146.47;5030480;28;20045;-66
2021/08/18 06:42:58;;;;;;;1.45;0.70;;;;;;;26.04;34.98;101154.16;5030143;28;20589;-66
2021/08/18 06:45:25;;;;;;;1.20;0.73;;;;;;;26.09;34.81;101157.19;5030157;28;20504;-66
2021/08/18 06:47:51;;;;;;;1.48;0.70;;;;;;;26.17;34.75;101153.59;5030220;28;20045;-66
2021/08/18 06:50:18;;;;;;;2.05;1.00;;;;;;;26.27;34.61;101156.03;5030249;28;20045;-66
2021/08/18 06:52:44;;;;;;;2.95;1.05;;;;;;;26.37;34.51;101157.47;5030312;28;20049;-66
2021/08/18 06:55:12;;;;;;;4.53;1.20;;;;;;;26.43;34.63;101152.41;5029885;28;20049;-65
2021/08/18 06:57:39;;;;;;;1.30;0.80;;;;;;;26.49;34.60;101159.75;5030037;28;20045;-66
2021/08/18 07:00:07;;;;;;;1.00;0.70;;;;;;;26.53;34.64;101164.56;5029964;28;20103;-66
2021/08/18 07:02:45;;;;;;;7.18;1.00;;;;;;;26.68;34.83;101159.22;5029686;28;20050;-66
2021/08/18 07:05:14;;;;;;;4.10;1.02;;;;;;;26.72;34.79;101157.00;5030007;28;20059;-66
2021/08/18 07:07:41;;;;;;;2.10;1.00;;;;;;;26.72;34.62;101152.44;5029728;28;20083;-66
2021/08/18 07:10:08;;;;;;;3.20;0.80;;;;;;;26.73;34.55;101158.69;5029644;28;20060;-66
2021/08/18 07:12:35;;;;;;;1.77;0.90;;;;;;;26.88;34.22;101156.84;5029872;28;20049;-66
2021/08/18 07:15:03;;;;;;;2.53;1.00;;;;;;;26.94;34.05;101157.13;5029747;28;20059;-66
2021/08/18 07:17:30;;;;;;;1.95;0.73;;;;;;;27.02;33.87;101167.78;5029424;28;20088;-66
2021/08/18 07:19:57;;;;;;;3.97;0.77;;;;;;;27.13;33.78;101170.03;5029430;28;20045;-66
2021/08/18 07:22:23;;;;;;;2.63;0.88;;;;;;;27.17;33.63;101163.28;5029465;28;20049;-66
2021/08/18 07:24:50;;;;;;;1.13;0.85;;;;;;;27.30;33.39;101170.69;5029545;28;20488;-66
2021/08/18 07:27:18;;;;;;;3.53;0.80;;;;;;;27.42;33.17;101168.38;5029376;28;20049;-66
2021/08/18 07:29:45;;;;;;;1.10;0.70;;;;;;;27.49;33.02;101171.13;5029587;28;20049;-66
2021/08/18 07:32:12;;;;;;;2.75;0.98;;;;;;;27.50;32.95;101173.66;5029194;28;20041;-66
2021/08/18 07:34:38;;;;;;;1.73;1.05;;;;;;;27.50;33.04;101167.41;5029145;28;20053;-66
2021/08/18 07:37:05;;;;;;;1.13;0.80;;;;;;;27.51;33.06;101169.94;5029239;28;20503;-66
2021/08/18 07:39:31;;;;;;;1.48;0.88;;;;;;;27.60;32.77;101169.81;5029007;28;20458;-66
2021/08/18 07:41:58;;;;;;;4.90;0.90;;;;;;;27.81;32.60;101172.56;5029227;28;20060;-66
2021/08/18 07:44:28;;;;;;;3.75;1.00;;;;;;;27.92;33.04;101170.38;5028945;28;20049;-66
2021/08/18 07:46:55;;;;;;;2.05;0.95;;;;;;;28.00;32.68;101171.09;5029024;28;20080;-66
2021/08/18 07:49:21;;;;;;;2.38;0.80;;;;;;;28.12;32.79;101166.03;5028823;28;20099;-66
2021/08/18 07:51:48;;;;;;;3.13;1.08;;;;;;;28.30;33.10;101164.75;5029126;28;20049;-65
2021/08/18 07:54:14;;;;;;;2.35;1.00;;;;;;;28.42;32.93;101178.59;5028841;28;20518;-66
2021/08/18 07:56:41;;;;;;;1.67;0.93;;;;;;;28.51;32.92;101170.13;5029330;28;20108;-66
2021/08/18 07:59:07;;;;;;;1.63;1.00;;;;;;;28.67;32.96;101166.34;5029108;28;20042;-66
2021/08/18 08:01:34;;;;;;;1.63;0.68;;;;;;;28.88;32.99;101177.28;5028969;28;20492;-66
2021/08/18 08:04:01;;;;;;;2.22;0.77;;;;;;;28.96;32.97;101174.41;5028884;28;20068;-66
2021/08/18 08:06:28;;;;;;;1.85;0.93;;;;;;;29.03;33.01;101178.00;5028847;28;20045;-66
2021/08/18 08:08:55;;;;;;;1.90;0.82;;;;;;;29.10;32.52;101176.19;5028648;28;20065;-66
2021/08/18 08:11:21;;;;;;;2.10;1.05;;;;;;;29.09;32.71;101176.34;5028610;28;20103;-66
2021/08/18 08:13:48;;;;;;;1.30;0.82;;;;;;;29.23;32.22;101185.38;5028863;28;20054;-66
2021/08/18 08:16:15;;;;;;;2.00;0.80;;;;;;;29.44;31.94;101182.59;5028875;28;20069;-66
2021/08/18 08:18:41;;;;;;;3.78;1.05;;;;;;;29.68;31.61;101183.09;5028857;28;20107;-66
2021/08/18 08:21:08;;;;;;;2.05;0.80;;;;;;;30.00;30.80;101190.69;5028804;28;20091;-66
2021/08/18 08:23:35;;;;;;;1.70;0.90;;;;;;;30.22;30.90;101181.38;5028279;28;20042;-66
2021/08/18 08:26:01;;;;;;;1.67;1.02;;;;;;;29.94;30.88;101176.97;5028532;28;20495;-66
2021/08/18 08:28:28;;;;;;;2.05;1.00;;;;;;;29.40;32.12;101177.81;5028471;28;20072;-66
2021/08/18 08:30:54;;;;;;;1.83;0.73;;;;;;;29.35;32.14;101174.88;5028552;28;20050;-66
2021/08/18 08:33:21;;;;;;;2.05;1.40;;;;;;;29.43;32.22;101183.63;5028512;28;20056;-66
2021/08/18 08:35:48;;;;;;;2.72;0.85;;;;;;;29.44;32.28;101182.59;5028627;28;20053;-66
2021/08/18 08:38:16;;;;;;;1.27;0.80;;;;;;;29.07;32.72;101179.25;5028487;28;20445;-66
2021/08/18 08:40:46;;;;;;;1.52;1.00;;;;;;;29.04;32.73;101185.06;5028460;28;20045;-66
2021/08/18 08:43:14;;;;;;;4.55;0.85;;;;;;;29.47;31.93;101186.75;5028443;28;20107;-65
2021/08/18 08:45:46;;;;;;;2.58;0.93;;;;;;;29.69;31.69;101187.47;5028201;28;20522;-66
2021/08/18 08:48:18;;;;;;;2.35;1.02;;;;;;;29.96;31.53;101190.28;5028289;28;20135;-66
2021/08/18 08:50:47;;;;;;;1.15;0.90;;;;;;;30.46;30.71;101177.19;5028503;28;20046;-66
2021/08/18 08:53:14;;;;;;;1.65;0.88;;;;;;;30.68;29.98;101182.44;5028342;28;20492;-66
2021/08/18 08:55:42;;;;;;;2.92;1.00;;;;;;;31.06;29.86;101175.50;5028123;28;20084;-66
2021/08/18 08:58:09;;;;;;;2.35;0.85;;;;;;;31.19;29.92;101174.63;5028203;28;20060;-66
2021/08/18 09:00:36;;;;;;;1.15;0.70;;;;;;;31.32;29.63;101181.88;5028120;28;20392;-66
2021/08/18 09:03:07;;;;;;;1.90;0.80;;;;;;;31.77;28.66;101178.34;5031724;28;20048;-66
2021/08/18 09:05:35;;;;;;;1.23;0.60;;;;;;;31.68;28.52;101177.78;5032029;28;20053;-66
2021/08/18 09:08:02;;;;;;;3.15;0.85;;;;;;;31.92;27.58;101176.16;5031949;28;20045;-66
2021/08/18 09:10:30;;;;;;;1.63;0.80;;;;;;;31.90;27.67;101176.38;5031881;28;20049;-66
2021/08/18 09:13:13;;;;;;;2.45;0.95;;;;;;;31.25;28.52;101184.63;5031958;28;20056;-66
2021/08/18 09:15:41;;;;;;;5.68;1.10;;;;;;;31.47;28.66;101168.88;5031787;28;20046;-66
2021/08/18 09:18:08;;;;;;;1.38;0.95;;;;;;;31.79;28.00;101170.84;5031875;28;20042;-66
2021/08/18 09:20:41;;;;;;;4.40;1.13;;;;;;;32.00;27.39;101184.06;5014225;28;20083;-66
2021/08/18 09:23:11;;;;;;;1.70;1.02;;;;;;;32.23;26.96;101183.50;5031679;28;20091;-66
2021/08/18 09:25:43;;;;;;;1.20;0.65;;;;;;;32.29;26.87;101173.66;5031668;28;20492;-66
2021/08/18 09:28:09;;;;;;;2.78;0.95;;;;;;;32.45;26.52;101174.97;5031595;28;20052;-66
2021/08/18 09:30:41;;;;;;;3.67;1.50;;;;;;;32.58;26.36;101176.72;5031243;28;20049;-66
2021/08/18 09:33:08;;;;;;;2.45;0.82;;;;;;;32.70;26.47;101177.66;5031306;28;20042;-64
2021/08/18 09:35:34;;;;;;;1.33;0.77;;;;;;;32.71;25.90;101175.78;5031133;28;20111;-67
2021/08/18 09:38:10;;;;;;;1.90;0.88;;;;;;;32.70;26.01;101183.09;5031318;28;20042;-66
2021/08/18 09:40:45;;;;;;;3.40;0.90;;;;;;;32.70;25.36;101179.56;5031575;28;20064;-66
2021/08/18 09:43:13;;;;;;;1.58;0.90;;;;;;;32.73;25.12;101179.09;5031324;28;20049;-67
2021/08/18 09:45:42;;;;;;;1.90;1.05;;;;;;;32.85;25.43;101174.59;5031337;28;20054;-66
2021/08/18 09:48:11;;;;;;;1.73;1.00;;;;;;;33.08;25.33;101174.97;5031275;28;20053;-66
2021/08/18 09:50:47;;;;;;;2.03;0.75;;;;;;;33.28;25.06;101169.34;5031251;28;20045;-66
2021/08/18 09:53:24;;;;;;;1.17;1.00;;;;;;;33.34;24.94;101174.72;5031195;28;20045;-66
2021/08/18 09:55:50;;;;;;;2.13;0.90;;;;;;;33.48;24.51;101169.91;5031154;28;20049;-66
2021/08/18 09:58:20;;;;;;;4.80;0.90;;;;;;;33.57;24.58;101166.88;5030977;28;20097;-66
2021/08/18 10:00:47;;;;;;;1.02;0.80;;;;;;;33.70;24.08;101170.25;5031200;28;20045;-66
2021/08/18 10:03:14;;;;;;;1.83;0.90;;;;;;;33.82;23.96;101169.47;5030803;28;20038;-66
2021/08/18 10:05:41;;;;;;;2.13;0.90;;;;;;;33.95;23.49;101172.00;5031021;28;20057;-66
2021/08/18 10:08:09;;;;;;;1.25;0.95;;;;;;;34.14;23.51;101177.38;5030693;28;20057;-66
2021/08/18 10:10:39;;;;;;;0.98;0.63;;;;;;;34.16;22.88;101169.81;5030864;28;20049;-65
2021/08/18 10:13:10;;;;;;;0.95;0.70;;;;;;;34.32;22.88;101162.81;5029703;28;20041;-65
2021/08/18 10:15:38;;;;;;;1.50;0.90;;;;;;;34.29;22.87;101157.84;5030883;28;20053;-65
2021/08/18 10:18:06;;;;;;;0.95;0.80;;;;;;;34.30;22.96;101156.78;5030876;28;20407;-65
2021/08/18 10:20:33;;;;;;;3.33;0.88;;;;;;;34.31;22.71;101155.69;5030647;28;20092;-65
2021/08/18 10:23:06;;;;;;;2.10;0.88;;;;;;;34.46;22.45;101156.13;5030744;28;20071;-65
2021/08/18 10:25:49;;;;;;;2.33;0.90;;;;;;;34.60;22.14;101155.84;5030456;28;20558;-64
2021/08/18 10:28:16;;;;;;;1.25;0.80;;;;;;;34.81;21.84;101162.59;5030651;28;20494;-65
2021/08/18 10:30:54;;;;;;;2.15;0.80;;;;;;;34.94;21.69;101154.19;5030883;28;20123;-64
2021/08/18 10:33:55;;;;;;;1.25;0.90;;;;;;;35.08;21.80;101153.91;5030420;28;20046;-64
2021/08/18 10:36:40;;;;;;;2.20;1.15;;;;;;;35.21;21.34;101155.53;5030418;28;20071;-64
2021/08/18 10:39:19;;;;;;;;;;;;;;;35.26;21.73;101151.03;5030747;28;20049;-64
2021/08/18 10:42:16;;;;;;;2.38;0.93;;;;;;;35.41;21.32;101141.50;5030304;28;19936;-65
2021/08/18 10:44:46;;;;;;;1.65;0.85;;;;;;;35.58;21.17;101149.72;5030310;28;20053;-64
2021/08/18 10:47:26;;;;;;;1.88;0.80;;;;;;;35.60;21.52;101151.13;5030156;28;20061;-65
2021/08/18 10:49:54;;;;;;;3.60;0.85;;;;;;;35.77;21.46;101148.44;5030364;28;20132;-65
2021/08/18 10:52:30;;;;;;;2.35;0.80;;;;;;;35.72;21.67;101139.31;5030160;28;20099;-65
2021/08/18 10:55:09;;;;;;;1.70;1.00;;;;;;;35.87;21.15;101142.38;5030079;28;20053;-65
2021/08/18 10:57:44;;;;;;;1.42;0.90;;;;;;;36.03;21.60;101146.16;5030032;28;20393;-65
2021/08/18 11:00:16;;;;;;;1.20;0.90;;;;;;;36.02;21.15;101144.50;5030135;28;20053;-65
2021/08/18 11:03:16;;;;;;;2.38;0.82;;;;;;;36.10;21.06;101135.06;5030273;28;20042;-65
2021/08/18 11:05:51;;;;;;;2.92;0.82;;;;;;;36.21;21.44;101141.53;5001933;28;20049;-65
2021/08/18 11:08:26;;;;;;;1.60;1.08;;;;;;;36.14;21.23;101136.25;5029554;28;20060;-65
2021/08/18 11:10:57;;;;;;;1.40;0.95;;;;;;;36.26;21.23;101138.88;5029953;28;20051;-66
2021/08/18 11:13:42;;;;;;;3.38;1.00;;;;;;;36.35;20.41;101137.38;5029796;28;20052;-66
2021/08/18 11:16:26;;;;;;;2.92;0.90;;;;;;;36.46;20.73;101124.72;5029508;28;20096;-65
2021/08/18 11:18:55;;;;;;;1.90;0.90;;;;;;;36.63;20.77;101132.88;5029774;28;20056;-65
2021/08/18 11:21:27;;;;;;;1.25;1.00;;;;;;;36.53;20.73;101133.59;5029817;28;20045;-66
2021/08/18 11:23:58;;;;;;;2.03;0.90;;;;;;;36.70;20.74;101124.50;5028953;28;20045;-65
2021/08/18 11:26:28;;;;;;;1.00;0.80;;;;;;;36.73;20.28;101124.81;5029298;28;20088;-66
2021/08/18 11:29:10;;;;;;;2.78;0.90;;;;;;;36.84;20.27;101130.44;5029370;28;20049;-66
2021/08/18 11:31:40;;;;;;;2.55;0.80;;;;;;;36.88;20.21;101124.22;5029381;28;20054;-65